createdAt,value
2023-01-27T00:00:50.011Z,25.65
2023-01-27T00:03:18.201Z,25.25
2023-01-27T00:05:45.433Z,26.08
2023-01-27T00:08:12.383Z,25.13
2023-01-27T00:10:39.228Z,25.95
2023-01-27T00:13:24.272Z,25.27
2023-01-27T00:15:51.851Z,26.23
2023-01-27T00:18:18.686Z,25.83
2023-01-27T00:21:04.213Z,25.52
2023-01-27T00:23:49.844Z,26.90
2023-01-27T00:26:19.710Z,26.38
2023-01-27T00:28:47.481Z,27.10
2023-01-27T00:31:35.687Z,26.77
2023-01-27T00:34:09.152Z,25.48
2023-01-27T00:36:38.484Z,25.08
2023-01-27T00:39:06.870Z,26.27
2023-01-27T00:41:34.068Z,25.08
2023-01-27T00:44:01.992Z,27.52
2023-01-27T00:46:29.368Z,25.98
2023-01-27T00:48:56.044Z,26.13
2023-01-27T00:51:23.628Z,25.83
2023-01-27T00:53:50.642Z,26.48
2023-01-27T00:56:17.669Z,26.90
2023-01-27T00:58:44.400Z,26.42
2023-01-27T01:01:15.265Z,26.95
2023-01-27T01:03:41.990Z,25.52
2023-01-27T01:06:12.261Z,26.40
2023-01-27T01:08:39.717Z,26.08
2023-01-27T01:11:08.245Z,26.90
2023-01-27T01:13:35.628Z,29.05
2023-01-27T01:16:11.194Z,27.05
2023-01-27T01:18:39.295Z,26.98
2023-01-27T01:21:09.243Z,25.80
2023-01-27T01:23:40.297Z,25.90
2023-01-27T01:26:10.256Z,27.92
2023-01-27T01:28:39.095Z,27.30
2023-01-27T01:31:18.311Z,27.60
2023-01-27T01:33:45.934Z,26.48
2023-01-27T01:36:18.870Z,25.90
2023-01-27T01:38:46.597Z,25.88
2023-01-27T01:41:16.767Z,26.92
2023-01-27T01:43:43.526Z,25.60
2023-01-27T01:46:13.014Z,28.17
2023-01-27T01:48:54.652Z,25.75
2023-01-27T01:51:39.379Z,27.15
2023-01-27T01:54:09.681Z,25.02
2023-01-27T01:57:03.466Z,25.38
2023-01-27T01:59:58.932Z,26.95
2023-01-27T02:02:47.845Z,26.40
2023-01-27T02:05:38.069Z,25.55
2023-01-27T02:08:51.957Z,24.80
2023-01-27T02:11:38.539Z,25.92
2023-01-27T02:14:17.762Z,26.33
2023-01-27T02:16:44.826Z,24.83
2023-01-27T02:19:21.451Z,23.33
2023-01-27T02:21:50.576Z,24.95
2023-01-27T02:24:17.589Z,25.37
2023-01-27T02:26:44.718Z,25.10
2023-01-27T02:29:14.833Z,24.23
2023-01-27T02:31:42.708Z,25.38
2023-01-27T02:34:14.765Z,25.50
2023-01-27T02:36:47.763Z,23.92
2023-01-27T02:39:18.897Z,23.42
2023-01-27T02:41:57.612Z,25.17
2023-01-27T02:44:25.771Z,23.92
2023-01-27T02:46:52.418Z,24.23
2023-01-27T02:49:19.060Z,25.38
2023-01-27T02:51:45.798Z,22.83
2023-01-27T02:54:12.341Z,23.35
2023-01-27T02:56:39.341Z,23.48
2023-01-27T02:59:07.116Z,24.90
2023-01-27T03:01:38.548Z,24.63
2023-01-27T03:04:05.947Z,23.92
2023-01-27T03:06:33.924Z,24.13
2023-01-27T03:09:00.784Z,24.48
2023-01-27T03:11:46.434Z,23.70
2023-01-27T03:14:13.573Z,23.48
2023-01-27T03:16:59.126Z,24.20
2023-01-27T03:19:27.079Z,23.30
2023-01-27T03:21:54.318Z,23.38
2023-01-27T03:24:23.046Z,23.70
2023-01-27T03:26:51.711Z,22.23
2023-01-27T03:29:41.431Z,22.77
2023-01-27T03:32:08.162Z,22.80
2023-01-27T03:34:35.342Z,22.38
2023-01-27T03:37:28.428Z,22.52
2023-01-27T03:40:15.395Z,23.10
2023-01-27T03:43:00.691Z,24.52
2023-01-27T03:45:46.783Z,22.63
2023-01-27T03:48:13.865Z,24.17
2023-01-27T03:50:43.916Z,22.80
2023-01-27T03:53:10.717Z,22.20
2023-01-27T03:55:38.708Z,22.55
2023-01-27T03:58:18.579Z,22.90
2023-01-27T04:01:14.485Z,23.52
2023-01-27T04:04:01.085Z,21.75
2023-01-27T04:06:49.863Z,20.95
2023-01-27T04:09:28.162Z,21.50
2023-01-27T04:11:58.392Z,20.42
2023-01-27T04:14:29.254Z,21.02
2023-01-27T04:16:59.518Z,21.77
2023-01-27T04:19:26.427Z,20.80
2023-01-27T04:21:53.824Z,20.77
2023-01-27T04:24:24.317Z,20.42
2023-01-27T04:26:53.445Z,20.50
2023-01-27T04:29:21.021Z,20.55
2023-01-27T04:31:47.941Z,21.25
2023-01-27T04:34:14.838Z,21.33
2023-01-27T04:36:41.501Z,19.98
2023-01-27T04:39:09.663Z,22.17
2023-01-27T04:41:36.855Z,21.25
2023-01-27T04:44:04.899Z,21.73
2023-01-27T04:46:32.526Z,21.05
2023-01-27T04:48:59.547Z,21.25
2023-01-27T04:51:27.479Z,20.10
2023-01-27T04:53:54.680Z,21.75
2023-01-27T04:56:25.134Z,21.02
2023-01-27T04:58:52.352Z,20.10
2023-01-27T05:01:20.077Z,20.35
2023-01-27T05:03:46.876Z,20.00
2023-01-27T05:06:13.833Z,19.92
2023-01-27T05:08:40.960Z,20.30
2023-01-27T05:11:07.696Z,17.95
2023-01-27T05:13:35.178Z,19.63
2023-01-27T05:16:06.114Z,18.67
2023-01-27T05:18:32.717Z,16.55
2023-01-27T05:21:01.351Z,19.42
2023-01-27T05:23:37.455Z,17.70
2023-01-27T05:26:05.712Z,18.85
2023-01-27T05:28:32.861Z,17.90
2023-01-27T05:31:12.465Z,17.83
2023-01-27T05:33:41.396Z,15.13
2023-01-27T05:36:11.004Z,15.48
2023-01-27T05:38:38.379Z,14.95
2023-01-27T05:41:07.586Z,15.15
2023-01-27T05:43:36.477Z,14.00
2023-01-27T05:46:09.756Z,12.30
2023-01-27T05:48:39.231Z,13.48
2023-01-27T05:51:06.741Z,12.20
2023-01-27T05:53:34.054Z,12.35
2023-01-27T05:56:00.867Z,12.93
2023-01-27T05:58:27.852Z,13.82
2023-01-27T06:00:55.196Z,13.43
2023-01-27T06:03:22.240Z,12.75
2023-01-27T06:05:56.292Z,13.90
2023-01-27T06:08:25.391Z,13.52
2023-01-27T06:10:52.948Z,13.82
2023-01-27T06:13:23.343Z,14.95
2023-01-27T06:18:18.992Z,14.82
2023-01-27T06:20:46.048Z,16.40
2023-01-27T06:23:15.217Z,16.80
2023-01-27T06:25:48.308Z,17.15
2023-01-27T06:28:28.165Z,16.33
2023-01-27T06:30:56.546Z,18.08
2023-01-27T06:33:23.635Z,17.05
2023-01-27T06:35:50.615Z,17.67
2023-01-27T06:38:17.151Z,16.35
2023-01-27T06:40:44.445Z,17.33
2023-01-27T06:43:14.776Z,17.77
2023-01-27T06:45:41.814Z,16.30
2023-01-27T06:48:08.839Z,17.63
2023-01-27T06:50:36.887Z,18.05
2023-01-27T06:53:05.966Z,18.55
2023-01-27T06:55:34.187Z,18.08
2023-01-27T06:58:01.920Z,18.45
2023-01-27T07:00:28.636Z,17.35
2023-01-27T07:02:58.460Z,16.88
2023-01-27T07:05:25.374Z,14.57
2023-01-27T07:07:52.420Z,15.95
2023-01-27T07:10:19.181Z,15.07
2023-01-27T07:12:46.394Z,15.02
2023-01-27T07:15:13.375Z,13.55
2023-01-27T07:17:40.094Z,14.52
2023-01-27T07:20:09.749Z,15.98
2023-01-27T07:22:36.335Z,15.15
2023-01-27T07:25:03.760Z,16.02
2023-01-27T07:27:30.784Z,15.43
2023-01-27T07:29:57.433Z,14.07
2023-01-27T07:32:26.508Z,15.45
2023-01-27T07:34:53.896Z,13.60
2023-01-27T07:37:20.520Z,14.48
2023-01-27T07:39:48.122Z,14.70
2023-01-27T07:42:14.651Z,14.70
2023-01-27T07:44:41.467Z,14.82
2023-01-27T07:47:07.967Z,14.55
2023-01-27T07:49:34.470Z,14.45
2023-01-27T07:52:01.043Z,14.35
2023-01-27T07:54:27.779Z,13.05
2023-01-27T07:56:54.248Z,15.02
2023-01-27T07:59:20.799Z,13.35
2023-01-27T08:01:48.405Z,13.70
2023-01-27T08:04:15.216Z,14.45
2023-01-27T08:06:41.694Z,11.82
2023-01-27T08:09:08.509Z,11.80
2023-01-27T08:11:35.428Z,13.77
2023-01-27T08:14:02.351Z,13.13
2023-01-27T08:16:29.574Z,13.40
2023-01-27T08:18:56.754Z,13.05
2023-01-27T08:21:25.061Z,12.10
2023-01-27T08:23:53.532Z,12.73
2023-01-27T08:26:20.081Z,14.48
2023-01-27T08:28:47.055Z,13.45
2023-01-27T08:31:16.144Z,13.63
2023-01-27T08:33:48.800Z,13.45
2023-01-27T08:36:17.200Z,13.30
2023-01-27T08:38:45.100Z,14.02
2023-01-27T08:41:14.520Z,12.07
2023-01-27T08:43:42.191Z,12.88
2023-01-27T08:46:09.955Z,12.85
2023-01-27T08:48:37.300Z,13.13
2023-01-27T08:51:05.845Z,12.52
2023-01-27T08:53:33.689Z,12.15
2023-01-27T08:56:05.219Z,13.05
2023-01-27T08:58:33.591Z,12.10
2023-01-27T09:01:04.787Z,14.05
2023-01-27T09:03:31.603Z,11.25
2023-01-27T09:05:58.393Z,12.43
2023-01-27T09:08:25.838Z,10.10
2023-01-27T09:10:53.396Z,10.40
2023-01-27T09:13:22.333Z,10.60
2023-01-27T09:15:51.629Z,10.18
2023-01-27T09:18:18.326Z,10.88
2023-01-27T09:20:45.126Z,10.63
2023-01-27T09:23:11.851Z,10.38
2023-01-27T09:25:39.431Z,10.48
2023-01-27T09:28:05.926Z,11.15
2023-01-27T09:30:32.930Z,10.75
2023-01-27T09:33:01.477Z,10.77
2023-01-27T09:35:39.406Z,9.23
2023-01-27T09:38:07.230Z,8.70
2023-01-27T09:41:11.754Z,9.52
2023-01-27T09:43:41.264Z,8.50
2023-01-27T09:46:35.835Z,8.15
2023-01-27T09:49:32.615Z,8.68
2023-01-27T09:52:07.928Z,9.30
2023-01-27T09:54:48.243Z,8.38
2023-01-27T09:57:25.123Z,8.90
2023-01-27T10:00:16.456Z,8.82
2023-01-27T10:02:53.440Z,9.13
2023-01-27T10:05:38.309Z,8.48
2023-01-27T10:08:31.144Z,9.13
2023-01-27T10:11:16.932Z,9.23
2023-01-27T10:14:26.150Z,7.72
2023-01-27T10:17:14.905Z,8.10
2023-01-27T10:20:10.043Z,7.50
2023-01-27T10:23:05.181Z,8.13
2023-01-27T10:25:47.174Z,8.80
2023-01-27T10:28:19.355Z,7.97
2023-01-27T10:31:01.029Z,8.85
2023-01-27T10:33:54.873Z,8.95
2023-01-27T10:36:29.931Z,8.95
2023-01-27T10:39:30.591Z,8.00
2023-01-27T10:42:18.502Z,8.88
2023-01-27T10:45:00.039Z,7.80
2023-01-27T10:47:38.722Z,8.55
2023-01-27T10:50:11.484Z,8.55
2023-01-27T10:53:01.950Z,8.07
2023-01-27T10:55:52.505Z,8.35
2023-01-27T10:58:33.542Z,7.35
2023-01-27T11:01:20.769Z,7.95
2023-01-27T11:03:56.360Z,7.93
2023-01-27T11:06:28.271Z,7.53
2023-01-27T11:09:24.008Z,7.78
2023-01-27T11:11:52.441Z,7.82
2023-01-27T11:14:45.043Z,7.95
2023-01-27T11:17:38.800Z,7.90
2023-01-27T11:20:29.582Z,7.03
2023-01-27T11:23:17.888Z,7.38
2023-01-27T11:25:56.707Z,7.47
2023-01-27T11:28:41.664Z,7.03
2023-01-27T11:31:39.672Z,7.25
2023-01-27T11:34:13.638Z,6.28
2023-01-27T11:36:40.707Z,6.60
2023-01-27T11:39:10.012Z,6.10
2023-01-27T11:41:41.237Z,6.05
2023-01-27T11:44:19.993Z,6.78
2023-01-27T11:46:48.053Z,6.00
2023-01-27T11:49:23.881Z,5.50
2023-01-27T11:51:50.344Z,5.13
2023-01-27T11:54:25.854Z,6.10
2023-01-27T11:56:52.475Z,6.30
2023-01-27T11:59:27.293Z,5.63
2023-01-27T12:02:01.776Z,4.80
2023-01-27T12:04:51.785Z,4.38
2023-01-27T12:07:25.137Z,4.75
2023-01-27T12:09:51.966Z,5.25
2023-01-27T12:12:26.496Z,4.75
2023-01-27T12:15:02.803Z,4.85
2023-01-27T12:17:39.076Z,4.22
2023-01-27T12:20:22.442Z,4.38
2023-01-27T12:22:53.773Z,4.32
2023-01-27T12:25:27.806Z,4.05
2023-01-27T12:28:00.491Z,3.92
2023-01-27T12:30:34.732Z,4.15
2023-01-27T12:33:20.678Z,4.20
2023-01-27T12:35:51.451Z,4.63
2023-01-27T12:38:25.960Z,4.93
2023-01-27T12:41:06.644Z,5.10
2023-01-27T12:43:51.382Z,4.95
2023-01-27T12:46:32.064Z,5.25
2023-01-27T12:49:20.756Z,4.78
2023-01-27T12:51:53.915Z,4.75
2023-01-27T12:54:22.453Z,5.43
2023-01-27T12:56:50.769Z,4.50
2023-01-27T12:59:21.278Z,4.25
2023-01-27T13:04:34.883Z,4.20
2023-01-27T13:07:02.545Z,4.87
2023-01-27T13:09:52.774Z,4.10
2023-01-27T13:12:28.328Z,5.18
2023-01-27T13:15:31.247Z,4.43
2023-01-27T13:17:59.335Z,4.88
2023-01-27T13:20:39.635Z,4.60
2023-01-27T13:23:18.685Z,4.28
2023-01-27T13:25:59.062Z,4.00
2023-01-27T13:28:39.624Z,4.05
2023-01-27T13:31:20.091Z,3.83
2023-01-27T13:33:48.816Z,4.28
2023-01-27T13:36:33.931Z,4.25
2023-01-27T13:39:15.085Z,3.90
2023-01-27T13:41:47.572Z,4.10
2023-01-27T13:44:36.514Z,3.17
2023-01-27T13:47:12.301Z,4.05
2023-01-27T13:49:45.763Z,3.85
2023-01-27T13:52:13.099Z,3.40
2023-01-27T13:54:39.866Z,3.33
2023-01-27T13:57:30.327Z,3.40
2023-01-27T14:00:19.603Z,4.22
2023-01-27T14:02:58.692Z,3.65
2023-01-27T14:05:41.562Z,3.38
2023-01-27T14:08:12.788Z,3.88
2023-01-27T14:10:55.830Z,3.50
2023-01-27T14:13:49.606Z,3.90
2023-01-27T14:16:34.861Z,3.55
2023-01-27T14:19:29.818Z,4.20
2023-01-27T14:22:15.524Z,3.28
2023-01-27T14:24:48.539Z,4.22
2023-01-27T14:27:26.390Z,3.45
2023-01-27T14:29:59.274Z,3.53
2023-01-27T14:32:33.621Z,3.00
2023-01-27T14:35:24.525Z,3.50
2023-01-27T14:37:59.010Z,3.28
2023-01-27T14:40:41.031Z,3.83
2023-01-27T14:43:20.317Z,4.32
2023-01-27T14:46:16.113Z,4.10
2023-01-27T14:48:43.251Z,3.63
2023-01-27T14:51:26.142Z,3.65
2023-01-27T14:54:03.724Z,3.40
2023-01-27T14:56:48.789Z,4.38
2023-01-27T14:59:37.271Z,3.85
2023-01-27T15:02:16.056Z,3.95
2023-01-27T15:04:52.101Z,3.58
2023-01-27T15:07:46.600Z,3.70
2023-01-27T15:10:29.480Z,4.30
2023-01-27T15:13:17.593Z,4.60
2023-01-27T15:16:03.731Z,3.92
2023-01-27T15:19:11.061Z,3.80
2023-01-27T15:21:54.554Z,3.88
2023-01-27T15:24:54.319Z,4.13
2023-01-27T15:27:21.709Z,4.22
2023-01-27T15:29:48.508Z,3.80
2023-01-27T15:32:15.121Z,3.78
2023-01-27T15:34:44.458Z,7.38
2023-01-27T15:37:25.252Z,4.43
2023-01-27T15:40:15.563Z,4.43
2023-01-27T15:42:57.699Z,4.13
2023-01-27T15:45:45.652Z,4.22
2023-01-27T15:48:17.815Z,3.17
2023-01-27T15:50:50.068Z,3.80
2023-01-27T15:53:29.645Z,3.63
2023-01-27T15:55:57.775Z,3.67
2023-01-27T15:58:27.654Z,4.72
2023-01-27T16:00:57.103Z,4.00
2023-01-27T16:03:28.157Z,4.10
2023-01-27T16:06:01.115Z,3.85
2023-01-27T16:08:32.979Z,3.83
2023-01-27T16:11:38.810Z,3.67
2023-01-27T16:14:11.435Z,4.18
2023-01-27T16:17:05.385Z,4.32
2023-01-27T16:19:39.003Z,4.90
2023-01-27T16:22:13.408Z,4.25
2023-01-27T16:24:48.834Z,4.47
2023-01-27T16:27:47.747Z,3.83
2023-01-27T16:30:29.366Z,4.00
2023-01-27T16:33:06.857Z,4.10
2023-01-27T16:35:49.505Z,4.07
2023-01-27T16:38:34.451Z,3.88
2023-01-27T16:41:05.566Z,4.13
2023-01-27T16:43:42.322Z,4.07
2023-01-27T16:46:24.277Z,3.70
2023-01-27T16:48:52.425Z,3.50
2023-01-27T16:51:19.346Z,3.35
2023-01-27T16:53:48.918Z,3.50
2023-01-27T16:56:26.763Z,3.57
2023-01-27T16:59:18.759Z,4.15
2023-01-27T17:01:48.888Z,4.45
2023-01-27T17:04:27.220Z,4.60
2023-01-27T17:06:58.163Z,4.32
2023-01-27T17:09:26.219Z,4.78
2023-01-27T17:11:54.129Z,4.22
2023-01-27T17:14:30.685Z,3.53
2023-01-27T17:17:01.533Z,3.25
2023-01-27T17:19:32.952Z,4.13
2023-01-27T17:22:01.582Z,3.70
2023-01-27T17:24:37.245Z,3.63
2023-01-27T17:27:09.250Z,3.50
2023-01-27T17:29:39.981Z,2.97
2023-01-27T17:32:23.376Z,3.25
2023-01-27T17:34:53.444Z,3.33
2023-01-27T17:37:22.421Z,3.40
2023-01-27T17:39:58.450Z,3.05
2023-01-27T17:42:29.569Z,3.25
2023-01-27T17:45:29.082Z,3.63
2023-01-27T17:48:00.846Z,2.97
2023-01-27T17:50:37.248Z,2.80
2023-01-27T17:53:11.116Z,3.33
2023-01-27T17:55:37.892Z,2.97
2023-01-27T17:58:07.001Z,2.58
2023-01-27T18:00:40.381Z,3.35
2023-01-27T18:03:30.254Z,3.17
2023-01-27T18:05:57.501Z,3.75
2023-01-27T18:08:24.620Z,3.70
2023-01-27T18:10:51.709Z,3.60
2023-01-27T18:13:18.415Z,4.38
2023-01-27T18:15:49.756Z,3.55
2023-01-27T18:18:21.278Z,3.60
2023-01-27T18:21:03.163Z,4.35
2023-01-27T18:23:33.184Z,3.53
2023-01-27T18:26:21.858Z,3.95
2023-01-27T18:29:01.128Z,4.13
2023-01-27T18:31:35.302Z,3.78
2023-01-27T18:34:04.772Z,3.10
2023-01-27T18:36:38.931Z,3.40
2023-01-27T18:39:26.835Z,4.00
2023-01-27T18:41:54.544Z,3.53
2023-01-27T18:44:27.003Z,3.42
2023-01-27T18:47:14.207Z,3.40
2023-01-27T18:49:40.903Z,3.50
2023-01-27T18:52:14.339Z,2.65
2023-01-27T18:54:41.640Z,2.97
2023-01-27T18:57:08.504Z,3.17
2023-01-27T18:59:35.004Z,2.97
2023-01-27T19:02:02.187Z,2.72
2023-01-27T19:04:28.995Z,2.92
2023-01-27T19:06:56.219Z,3.10
2023-01-27T19:09:23.236Z,2.97
2023-01-27T19:11:50.922Z,3.50
2023-01-27T19:14:17.390Z,3.60
2023-01-27T19:16:44.392Z,3.50
2023-01-27T19:19:11.482Z,4.70
2023-01-27T19:21:38.485Z,4.05
2023-01-27T19:24:05.954Z,3.92
2023-01-27T19:26:33.404Z,5.63
2023-01-27T19:29:00.044Z,5.55
2023-01-27T19:31:26.893Z,3.65
2023-01-27T19:33:55.528Z,4.55
2023-01-27T19:36:44.202Z,3.30
2023-01-27T19:39:17.056Z,3.20
2023-01-27T19:41:47.759Z,3.30
2023-01-27T19:44:15.330Z,3.55
2023-01-27T19:46:42.832Z,3.10
2023-01-27T19:49:17.400Z,3.63
2023-01-27T19:51:44.405Z,3.13
2023-01-27T19:54:11.650Z,3.85
2023-01-27T19:56:38.579Z,3.95
2023-01-27T19:59:05.394Z,3.85
2023-01-27T20:01:31.893Z,4.07
2023-01-27T20:03:58.562Z,4.28
2023-01-27T20:06:31.341Z,3.55
2023-01-27T20:08:59.980Z,4.47
2023-01-27T20:11:42.600Z,3.70
2023-01-27T20:14:15.853Z,4.30
2023-01-27T20:16:43.063Z,4.00
2023-01-27T20:19:09.690Z,3.55
2023-01-27T20:21:36.747Z,3.63
2023-01-27T20:24:03.545Z,3.42
2023-01-27T20:26:31.179Z,3.63
2023-01-27T20:28:58.386Z,3.28
2023-01-27T20:31:25.157Z,3.55
2023-01-27T20:33:52.115Z,3.70
2023-01-27T20:36:21.791Z,3.38
2023-01-27T20:38:48.611Z,3.97
2023-01-27T20:41:21.522Z,2.97
2023-01-27T20:43:48.503Z,3.67
2023-01-27T20:46:18.387Z,3.85
2023-01-27T20:48:45.191Z,4.10
2023-01-27T20:51:14.446Z,4.20
2023-01-27T20:53:45.721Z,3.67
2023-01-27T20:56:18.622Z,3.63
2023-01-27T20:58:46.591Z,3.40
2023-01-27T21:01:15.799Z,3.17
2023-01-27T21:03:43.268Z,3.67
2023-01-27T21:06:11.658Z,3.50
2023-01-27T21:08:39.623Z,3.88
2023-01-27T21:11:10.873Z,3.50
2023-01-27T21:13:39.903Z,3.88
2023-01-27T21:16:07.069Z,4.60
2023-01-27T21:18:35.429Z,4.05
2023-01-27T21:21:03.949Z,6.15
2023-01-27T21:23:32.669Z,4.68
2023-01-27T21:26:04.760Z,4.95
2023-01-27T21:28:33.757Z,5.03
2023-01-27T21:31:08.071Z,5.03
2023-01-27T21:33:38.893Z,5.70
2023-01-27T21:36:10.420Z,3.97
2023-01-27T21:38:37.418Z,5.00
2023-01-27T21:41:10.182Z,3.58
2023-01-27T21:43:55.945Z,4.80
2023-01-27T21:46:23.371Z,4.95
2023-01-27T21:48:49.864Z,4.03
2023-01-27T21:51:17.182Z,3.92
2023-01-27T21:53:44.175Z,3.15
2023-01-27T21:56:11.134Z,2.90
2023-01-27T21:58:37.901Z,3.20
2023-01-27T22:01:09.527Z,3.03
2023-01-27T22:03:37.602Z,3.20
2023-01-27T22:06:09.715Z,3.85
2023-01-27T22:08:37.025Z,3.45
2023-01-27T22:11:11.664Z,3.45
2023-01-27T22:13:39.569Z,3.67
2023-01-27T22:16:06.809Z,3.75
2023-01-27T22:18:33.686Z,3.40
2023-01-27T22:21:03.677Z,2.92
2023-01-27T22:23:30.547Z,3.00
2023-01-27T22:25:58.039Z,3.08
2023-01-27T22:28:26.364Z,3.28
2023-01-27T22:30:54.010Z,2.70
2023-01-27T22:33:20.577Z,3.45
2023-01-27T22:35:47.272Z,3.30
2023-01-27T22:38:13.931Z,3.30
2023-01-27T22:40:40.400Z,2.97
2023-01-27T22:43:10.213Z,2.92
2023-01-27T22:45:40.172Z,2.30
2023-01-27T22:48:08.669Z,2.50
2023-01-27T22:50:36.758Z,3.03
2023-01-27T22:53:05.216Z,2.90
2023-01-27T22:55:32.214Z,3.20
2023-01-27T22:57:59.247Z,3.17
2023-01-27T23:00:25.804Z,3.50
2023-01-27T23:02:52.654Z,2.83
2023-01-27T23:05:19.203Z,3.00
2023-01-27T23:07:47.190Z,3.65
2023-01-27T23:10:14.184Z,3.58
2023-01-27T23:12:40.740Z,4.00
2023-01-27T23:15:07.680Z,3.58
2023-01-27T23:17:34.312Z,3.63
2023-01-27T23:20:00.826Z,3.17
2023-01-27T23:22:27.699Z,3.55
2023-01-27T23:24:54.321Z,3.15
2023-01-27T23:27:21.412Z,3.00
2023-01-27T23:29:47.854Z,3.10
2023-01-27T23:32:14.368Z,3.70
2023-01-27T23:34:41.345Z,4.00
2023-01-27T23:37:07.848Z,3.78
2023-01-27T23:39:34.943Z,4.03
2023-01-27T23:42:01.505Z,4.38
2023-01-27T23:44:28.280Z,3.70
2023-01-27T23:46:55.051Z,4.35
2023-01-27T23:49:21.991Z,4.32
2023-01-27T23:51:48.921Z,3.60
2023-01-27T23:54:15.761Z,3.90
2023-01-27T23:56:42.685Z,3.85
2023-01-27T23:59:12.093Z,4.10
